Time;durP1;ratioP1;P1;durP2;ratioP2;P2;SDS_P1;SDS_P2;PMS_P1;PMS_P2;Temp;Humidity;BMP_temperature;BMP_pressure;BME280_temperature;BME280_humidity;BME280_pressure;Samples;Min_cycle;Max_cycle;Signal;HPM_P1;HPM_P2
2021/10/22 00:00:37;;;;;;;2.05;1.20;;;21.80;53.80;;;;;;6270924;28;20025;-68
2021/10/22 00:03:38;;;;;;;1.70;1.10;;;21.80;53.80;;;;;;6271093;28;20075;-69
2021/10/22 00:06:39;;;;;;;1.92;1.02;;;21.80;53.80;;;;;;6272160;28;20033;-69
2021/10/22 00:09:40;;;;;;;1.90;1.08;;;21.80;53.70;;;;;;6271996;28;20537;-69
2021/10/22 00:12:41;;;;;;;1.98;1.17;;;21.80;53.80;;;;;;6281534;28;20408;-68
2021/10/22 00:15:42;;;;;;;2.72;1.35;;;21.80;53.70;;;;;;6297002;28;20031;-69
2021/10/22 00:18:43;;;;;;;2.22;1.20;;;21.80;54.50;;;;;;6279315;28;20083;-68
2021/10/22 00:21:43;;;;;;;2.22;1.00;;;21.80;53.70;;;;;;6270393;28;20029;-68
2021/10/22 00:24:44;;;;;;;2.63;1.00;;;21.80;53.80;;;;;;6271920;28;20063;-68
2021/10/22 00:27:44;;;;;;;1.65;0.90;;;21.80;54.50;;;;;;6269676;28;20531;-68
2021/10/22 00:30:45;;;;;;;2.70;1.00;;;21.80;53.80;;;;;;6271430;28;20040;-69
2021/10/22 00:33:46;;;;;;;1.77;0.90;;;21.80;53.90;;;;;;6271572;28;20082;-68
2021/10/22 00:36:46;;;;;;;4.50;1.00;;;21.80;53.70;;;;;;6271166;28;20032;-69
2021/10/22 00:39:47;;;;;;;2.53;1.00;;;21.80;53.70;;;;;;6271436;28;20018;-68
2021/10/22 00:42:48;;;;;;;1.50;0.85;;;21.80;53.70;;;;;;6271174;28;20020;-69
2021/10/22 00:45:51;;;;;;;1.40;1.02;;;21.80;53.80;;;;;;6271531;28;20025;-69
2021/10/22 00:48:52;;;;;;;2.10;1.20;;;21.80;53.80;;;;;;6271545;28;20028;-69
2021/10/22 00:51:53;;;;;;;1.65;1.00;;;21.80;53.70;;;;;;6269963;28;20021;-68
2021/10/22 00:54:54;;;;;;;2.33;1.20;;;21.80;53.70;;;;;;6270991;28;20100;-68
2021/10/22 00:57:55;;;;;;;1.92;1.00;;;21.80;53.70;;;;;;6271137;28;20445;-68
2021/10/22 01:00:55;;;;;;;1.90;0.90;;;21.80;53.70;;;;;;6269507;28;20024;-68
2021/10/22 01:03:56;;;;;;;1.40;0.90;;;21.80;53.70;;;;;;6270771;28;20029;-68
2021/10/22 01:06:57;;;;;;;2.20;0.82;;;21.80;53.80;;;;;;6277430;28;20032;-69
2021/10/22 01:09:58;;;;;;;1.77;1.05;;;21.80;53.70;;;;;;6270401;28;20040;-68
2021/10/22 01:12:59;;;;;;;2.15;1.00;;;21.80;53.70;;;;;;6270492;28;20041;-69
2021/10/22 01:16:01;;;;;;;1.88;1.00;;;21.80;53.70;;;;;;6270452;28;20025;-68
2021/10/22 01:19:01;;;;;;;2.00;1.00;;;21.80;53.80;;;;;;6269443;28;20028;-68
2021/10/22 01:22:02;;;;;;;2.28;1.10;;;21.80;53.80;;;;;;6270776;28;20017;-68
2021/10/22 01:25:05;;;;;;;2.05;1.00;;;21.80;53.70;;;;;;6266050;28;20026;-69
2021/10/22 01:28:06;;;;;;;2.40;1.15;;;21.80;53.70;;;;;;6291052;28;20474;-69
2021/10/22 01:31:07;;;;;;;1.92;0.95;;;21.80;53.70;;;;;;6294845;28;20047;-68
2021/10/22 01:34:08;;;;;;;1.25;0.95;;;21.80;53.70;;;;;;6294886;28;20456;-68
2021/10/22 01:37:08;;;;;;;2.30;1.13;;;21.80;53.80;;;;;;6280138;28;20398;-68
2021/10/22 01:40:09;;;;;;;1.80;1.00;;;21.80;53.70;;;;;;6268031;28;20496;-68
2021/10/22 01:43:10;;;;;;;1.58;0.80;;;21.80;53.70;;;;;;6269919;28;20023;-69
2021/10/22 01:46:11;;;;;;;1.88;0.90;;;21.80;53.70;;;;;;6269912;28;20390;-69
2021/10/22 01:49:12;;;;;;;2.05;1.00;;;21.80;53.70;;;;;;6269909;28;20585;-69
2021/10/22 01:52:13;;;;;;;2.00;1.10;;;21.80;53.80;;;;;;6269488;28;20032;-69
2021/10/22 01:55:14;;;;;;;2.00;0.90;;;21.80;53.70;;;;;;6268296;28;20029;-69
2021/10/22 01:58:16;;;;;;;1.60;0.82;;;21.80;53.80;;;;;;6269603;28;20017;-68
2021/10/22 02:01:18;;;;;;;1.85;0.90;;;21.80;53.80;;;;;;6274987;28;20547;-69
2021/10/22 02:04:18;;;;;;;1.83;0.95;;;21.80;53.80;;;;;;6269562;28;20025;-69
2021/10/22 02:07:19;;;;;;;1.48;0.88;;;21.80;53.70;;;;;;6269630;28;20584;-68
2021/10/22 02:10:19;;;;;;;1.85;0.90;;;21.80;53.80;;;;;;6269308;28;20533;-68
2021/10/22 02:13:20;;;;;;;1.83;0.93;;;21.80;53.70;;;;;;6269750;28;20356;-69
2021/10/22 02:16:20;;;;;;;1.15;0.80;;;21.70;53.60;;;;;;6268492;28;20119;-68
2021/10/22 02:19:21;;;;;;;2.90;1.30;;;21.80;53.70;;;;;;6243502;28;20021;-68
2021/10/22 02:22:21;;;;;;;2.58;0.93;;;21.80;53.60;;;;;;6251553;28;20017;-69
2021/10/22 02:25:22;;;;;;;1.08;0.82;;;21.70;53.70;;;;;;6269167;28;20028;-69
2021/10/22 02:28:23;;;;;;;1.90;0.80;;;21.80;53.80;;;;;;6269096;28;20036;-69
2021/10/22 02:31:23;;;;;;;1.85;1.00;;;21.70;53.60;;;;;;6269258;28;20060;-69
2021/10/22 02:34:24;;;;;;;1.38;0.70;;;21.70;53.60;;;;;;6268897;28;20498;-68
2021/10/22 02:37:25;;;;;;;1.45;0.80;;;21.70;53.60;;;;;;6269087;28;20021;-68
2021/10/22 02:40:27;;;;;;;1.00;0.80;;;21.70;53.60;;;;;;6269037;28;20029;-67
2021/10/22 02:43:28;;;;;;;1.33;0.90;;;21.70;53.70;;;;;;6269190;28;20052;-68
2021/10/22 02:46:28;;;;;;;2.50;0.90;;;21.70;53.60;;;;;;6269204;28;20028;-68
2021/10/22 02:49:29;;;;;;;1.35;1.00;;;21.70;53.70;;;;;;6269192;28;20033;-68
2021/10/22 02:52:30;;;;;;;1.70;0.93;;;21.70;53.70;;;;;;6273218;28;20025;-68
2021/10/22 02:55:30;;;;;;;1.27;0.60;;;21.70;53.70;;;;;;6274329;28;20486;-68
2021/10/22 02:58:31;;;;;;;1.08;0.70;;;21.70;53.60;;;;;;6273739;28;20036;-68
2021/10/22 03:01:32;;;;;;;1.77;0.88;;;21.70;53.60;;;;;;6277525;28;20012;-69
2021/10/22 03:04:33;;;;;;;1.17;0.80;;;21.80;53.80;;;;;;6297556;28;20020;-69
2021/10/22 03:07:33;;;;;;;1.77;0.80;;;21.70;53.60;;;;;;6288565;28;20107;-69
2021/10/22 03:10:34;;;;;;;2.40;0.95;;;21.70;53.70;;;;;;6274053;28;20567;-69
2021/10/22 03:13:35;;;;;;;1.88;0.95;;;21.70;53.60;;;;;;6273742;28;20025;-68
2021/10/22 03:16:35;;;;;;;2.25;1.00;;;21.70;53.60;;;;;;6272108;28;20061;-68
2021/10/22 03:19:36;;;;;;;1.20;0.90;;;21.80;53.70;;;;;;6273577;28;20025;-68
2021/10/22 03:22:38;;;;;;;0.85;0.70;;;21.70;53.60;;;;;;6273619;28;20032;-68
2021/10/22 03:25:39;;;;;;;2.22;0.70;;;21.70;53.50;;;;;;6276067;28;20411;-69
2021/10/22 03:28:41;;;;;;;2.30;0.90;;;21.70;53.60;;;;;;6298259;28;20094;-69
2021/10/22 03:31:41;;;;;;;1.75;0.90;;;21.70;53.60;;;;;;6287324;28;20021;-68
2021/10/22 03:34:42;;;;;;;1.90;0.95;;;21.70;53.60;;;;;;6273243;28;20021;-69
2021/10/22 03:37:43;;;;;;;1.77;1.02;;;21.70;53.60;;;;;;6273337;28;20029;-68
2021/10/22 03:40:43;;;;;;;1.98;1.02;;;21.70;53.50;;;;;;6272966;28;20032;-68
2021/10/22 03:43:44;;;;;;;2.75;1.05;;;21.70;53.60;;;;;;6271867;28;20024;-69
2021/10/22 03:46:45;;;;;;;1.67;1.02;;;21.70;53.50;;;;;;6273077;28;20024;-68
2021/10/22 03:49:45;;;;;;;2.83;1.00;;;21.70;53.60;;;;;;6272788;28;20060;-68
2021/10/22 03:52:46;;;;;;;2.53;0.82;;;21.70;53.60;;;;;;6272641;28;20082;-68
2021/10/22 03:55:48;;;;;;;2.55;0.80;;;21.70;53.60;;;;;;6272465;28;20077;-69
2021/10/22 03:58:48;;;;;;;1.48;0.82;;;21.70;53.40;;;;;;6296836;28;20028;-69
2021/10/22 04:01:50;;;;;;;1.23;0.73;;;21.70;53.40;;;;;;6289246;28;20033;-68
2021/10/22 04:04:50;;;;;;;3.13;0.93;;;21.70;53.40;;;;;;6272232;28;20017;-68
2021/10/22 04:07:51;;;;;;;2.03;1.02;;;21.70;53.50;;;;;;6287159;28;20264;-69
2021/10/22 04:10:51;;;;;;;2.17;1.00;;;21.70;53.40;;;;;;6296853;28;20052;-68
2021/10/22 04:13:52;;;;;;;1.10;0.65;;;21.70;53.40;;;;;;6296808;28;20051;-69
2021/10/22 04:16:56;;;;;;;2.35;1.20;;;21.70;53.40;;;;;;6291683;28;20091;-69
2021/10/22 04:19:56;;;;;;;2.53;1.10;;;21.70;53.40;;;;;;6271879;28;20456;-68
2021/10/22 04:22:58;;;;;;;3.00;1.10;;;21.70;53.40;;;;;;6272292;28;20032;-68
2021/10/22 04:25:59;;;;;;;4.68;1.23;;;21.70;53.40;;;;;;6271733;28;20467;-68
2021/10/22 04:28:59;;;;;;;3.28;1.00;;;21.70;53.40;;;;;;6270381;28;20028;-69
2021/10/22 04:32:00;;;;;;;2.10;0.95;;;21.70;53.30;;;;;;6283505;28;20027;-68
2021/10/22 04:35:01;;;;;;;1.27;0.70;;;21.70;53.30;;;;;;6295520;28;20024;-69
2021/10/22 04:41:20;;;;;;;3.33;0.95;;;21.70;53.30;;;;;;6277232;28;20032;-69
2021/10/22 04:44:21;;;;;;;2.53;0.90;;;21.70;53.30;;;;;;6296131;28;20031;-69
2021/10/22 04:47:21;;;;;;;7.80;0.82;;;21.70;53.30;;;;;;6295857;28;20078;-68
2021/10/22 04:50:22;;;;;;;2.67;1.30;;;21.70;53.20;;;;;;6296065;28;20028;-69
2021/10/22 04:53:25;;;;;;;2.25;0.90;;;21.70;53.20;;;;;;6296594;28;20120;-68
2021/10/22 04:56:26;;;;;;;2.15;0.98;;;21.70;53.20;;;;;;6281391;28;20027;-68
2021/10/22 04:59:26;;;;;;;1.58;0.70;;;21.70;53.30;;;;;;6269837;28;20399;-69
2021/10/22 05:02:27;;;;;;;2.22;0.70;;;21.70;53.20;;;;;;6270329;28;20029;-69
2021/10/22 05:05:28;;;;;;;3.15;0.90;;;21.70;53.30;;;;;;6270931;28;20017;-68
2021/10/22 05:08:29;;;;;;;2.22;0.80;;;21.70;53.30;;;;;;6271007;28;20479;-69
2021/10/22 05:11:29;;;;;;;2.13;0.80;;;21.70;53.20;;;;;;6270130;28;20079;-69
2021/10/22 05:14:30;;;;;;;2.05;1.08;;;21.70;53.20;;;;;;6270743;28;20025;-69
2021/10/22 05:17:32;;;;;;;1.85;1.00;;;21.70;53.20;;;;;;6270705;28;20482;-69
2021/10/22 05:20:32;;;;;;;1.80;0.80;;;21.70;53.20;;;;;;6270795;28;20049;-68
2021/10/22 05:23:34;;;;;;;1.23;0.70;;;21.70;53.20;;;;;;6270656;28;20147;-68
2021/10/22 05:26:35;;;;;;;0.80;0.63;;;21.70;53.30;;;;;;6269280;28;20029;-69
2021/10/22 05:29:35;;;;;;;4.18;0.77;;;21.70;53.10;;;;;;6270319;28;20048;-69
2021/10/22 05:32:36;;;;;;;2.47;0.90;;;21.70;53.20;;;;;;6270204;28;20037;-68
2021/10/22 05:35:37;;;;;;;1.45;0.90;;;21.70;53.20;;;;;;6269610;28;20107;-69
2021/10/22 05:38:37;;;;;;;1.50;0.90;;;21.70;53.10;;;;;;6295360;28;20024;-69
2021/10/22 05:41:38;;;;;;;1.15;0.70;;;21.70;53.10;;;;;;6286116;28;20063;-69
2021/10/22 05:44:38;;;;;;;1.98;0.88;;;21.70;53.10;;;;;;6269811;28;20025;-69
2021/10/22 05:47:39;;;;;;;2.20;0.90;;;21.70;53.10;;;;;;6283946;28;20389;-68
2021/10/22 05:50:40;;;;;;;1.33;0.80;;;21.70;53.00;;;;;;6295038;28;20389;-68
2021/10/22 05:53:41;;;;;;;3.65;1.35;;;21.70;53.10;;;;;;6270653;28;20021;-69
2021/10/22 05:56:42;;;;;;;2.15;1.00;;;21.70;53.10;;;;;;6269836;28;20053;-69
2021/10/22 05:59:42;;;;;;;1.95;1.15;;;21.70;53.10;;;;;;6270506;28;20032;-69
2021/10/22 06:02:44;;;;;;;3.10;0.95;;;21.70;53.00;;;;;;6272345;28;20028;-70
2021/10/22 06:05:51;;;;;;;1.77;0.80;;;21.70;53.80;;;;;;6272173;28;20029;-69
2021/10/22 06:08:52;;;;;;;1.50;0.80;;;21.70;53.10;;;;;;6270813;28;20066;-69
2021/10/22 06:11:53;;;;;;;3.35;1.00;;;21.70;53.30;;;;;;6270437;28;20041;-70
2021/10/22 06:14:54;;;;;;;1.20;0.80;;;21.70;53.10;;;;;;6271839;28;20394;-69
2021/10/22 06:17:54;;;;;;;1.67;0.80;;;21.70;53.10;;;;;;6270292;28;20056;-69
2021/10/22 06:21:01;;;;;;;1.85;0.98;;;21.70;53.00;;;;;;6271675;28;20032;-69
2021/10/22 06:24:03;;;;;;;4.43;1.17;;;21.70;52.90;;;;;;6270647;28;20044;-69
2021/10/22 06:27:04;;;;;;;1.77;0.90;;;21.70;53.10;;;;;;6285492;28;20036;-69
2021/10/22 06:30:05;;;;;;;2.50;1.00;;;21.70;53.10;;;;;;6295443;28;20072;-70
2021/10/22 06:33:06;;;;;;;1.77;0.90;;;21.70;53.00;;;;;;6295025;28;20082;-70
2021/10/22 06:36:07;;;;;;;1.98;0.80;;;21.70;53.10;;;;;;6290311;28;20064;-70
2021/10/22 06:39:09;;;;;;;2.40;1.20;;;21.70;53.10;;;;;;6271517;28;20032;-69
2021/10/22 06:42:09;;;;;;;1.98;1.00;;;21.70;53.00;;;;;;6270386;28;20021;-70
2021/10/22 06:45:11;;;;;;;3.17;1.00;;;21.70;53.00;;;;;;6267560;28;20078;-69
2021/10/22 06:48:11;;;;;;;3.42;1.20;;;21.70;52.90;;;;;;6273562;28;20031;-70
2021/10/22 06:51:14;;;;;;;1.92;0.85;;;21.70;52.80;;;;;;6270484;28;20028;-70
2021/10/22 06:54:15;;;;;;;3.45;1.20;;;21.70;52.90;;;;;;6270533;28;20027;-70
2021/10/22 06:57:16;;;;;;;4.72;1.45;;;21.70;52.90;;;;;;6269910;28;20029;-70
2021/10/22 07:00:16;;;;;;;3.75;0.80;;;21.70;52.90;;;;;;6270437;28;20025;-70
2021/10/22 07:03:25;;;;;;;3.38;0.95;;;21.70;53.00;;;;;;6289439;28;20078;-70
2021/10/22 07:09:46;;;;;;;5.05;0.90;;;21.70;53.20;;;;;;6293555;28;20045;-68
2021/10/22 07:12:49;;;;;;;9.45;1.02;;;21.80;53.40;;;;;;6290037;28;20066;-69
2021/10/22 07:15:49;;;;;;;6.18;1.48;;;21.80;53.20;;;;;;6292854;28;20143;-68
2021/10/22 07:18:50;;;;;;;1.88;0.80;;;21.80;53.10;;;;;;6278306;28;20051;-69
2021/10/22 07:21:52;;;;;;;5.53;1.00;;;21.70;52.90;;;;;;6286140;28;20048;-69
2021/10/22 07:24:52;;;;;;;4.43;1.10;;;21.70;53.10;;;;;;6246204;28;20013;-70
2021/10/22 07:27:53;;;;;;;8.25;1.17;;;21.70;52.90;;;;;;6288294;28;20024;-70
2021/10/22 07:30:53;;;;;;;3.30;0.98;;;21.70;53.20;;;;;;6289615;28;20025;-70
2021/10/22 07:33:55;;;;;;;7.43;1.15;;;21.70;52.30;;;;;;6270644;28;20029;-70
2021/10/22 07:36:57;;;;;;;6.07;1.20;;;21.70;51.90;;;;;;6284573;28;20027;-70
2021/10/22 07:39:58;;;;;;;5.18;1.27;;;21.70;52.20;;;;;;6273932;28;20024;-70
2021/10/22 07:42:59;;;;;;;4.78;1.30;;;21.70;52.10;;;;;;6273575;28;20072;-70
2021/10/22 07:46:00;;;;;;;6.70;1.40;;;21.70;52.30;;;;;;6275045;28;20021;-70
2021/10/22 07:49:00;;;;;;;4.13;1.10;;;21.70;52.50;;;;;;6273540;28;20028;-70
2021/10/22 07:52:01;;;;;;;3.65;1.10;;;21.70;52.30;;;;;;6275065;28;20386;-70
2021/10/22 07:55:03;;;;;;;8.48;1.50;;;21.70;52.30;;;;;;6274750;28;20327;-70
2021/10/22 07:58:04;;;;;;;7.57;1.30;;;21.70;52.30;;;;;;6274668;28;20040;-70
2021/10/22 08:01:05;;;;;;;4.43;1.05;;;21.70;52.30;;;;;;6273288;28;20021;-70
2021/10/22 08:04:08;;;;;;;1.80;0.90;;;21.70;52.50;;;;;;6274623;28;20107;-70
2021/10/22 08:07:09;;;;;;;5.88;1.42;;;21.70;52.30;;;;;;6274609;28;20021;-70
2021/10/22 08:10:10;;;;;;;1.30;0.80;;;21.70;52.30;;;;;;6274205;28;20099;-69
2021/10/22 08:13:11;;;;;;;4.95;1.20;;;21.70;52.40;;;;;;6272799;28;20504;-70
2021/10/22 08:16:13;;;;;;;2.65;0.90;;;21.70;52.50;;;;;;6274207;28;20043;-70
2021/10/22 08:19:15;;;;;;;2.55;0.90;;;21.70;52.60;;;;;;6274121;28;20028;-70
2021/10/22 08:22:28;;;;;;;2.90;1.00;;;21.70;52.40;;;;;;6272921;28;20028;-69
2021/10/22 08:25:29;;;;;;;3.38;1.00;;;21.70;52.50;;;;;;6275387;28;20021;-70
2021/10/22 08:28:30;;;;;;;3.20;1.10;;;21.70;52.40;;;;;;6299305;28;20024;-70
2021/10/22 08:31:30;;;;;;;1.92;0.90;;;21.70;52.50;;;;;;6288894;28;20089;-70
2021/10/22 08:34:31;;;;;;;2.85;0.90;;;21.70;52.50;;;;;;6274779;28;20025;-70
2021/10/22 08:37:35;;;;;;;2.83;0.95;;;21.70;52.40;;;;;;6282248;28;20028;-70
2021/10/22 08:40:36;;;;;;;2.10;0.85;;;21.70;52.60;;;;;;6272158;28;20087;-70
2021/10/22 08:43:38;;;;;;;2.83;1.05;;;21.70;52.50;;;;;;6272607;28;20029;-70
2021/10/22 08:46:41;;;;;;;2.20;1.13;;;21.70;52.50;;;;;;6273331;28;20028;-70
2021/10/22 08:49:42;;;;;;;2.20;1.00;;;21.70;52.60;;;;;;6273124;28;20028;-70
2021/10/22 08:52:43;;;;;;;3.05;1.20;;;21.70;52.60;;;;;;6295903;28;20103;-69
2021/10/22 08:55:45;;;;;;;2.85;1.00;;;21.70;52.40;;;;;;6298199;28;20482;-70
2021/10/22 08:58:46;;;;;;;2.83;1.20;;;21.70;52.50;;;;;;6279924;28;20032;-70
2021/10/22 09:02:08;;;;;;;2.22;0.85;;;21.70;52.50;;;;;;6271856;28;20021;-70
2021/10/22 09:05:18;;;;;;;3.20;0.93;;;21.70;52.50;;;;;;6273226;28;20020;-71
2021/10/22 09:08:34;;;;;;;3.80;0.80;;;21.70;52.50;;;;;;6273465;28;20024;-70
2021/10/22 09:11:37;;;;;;;2.30;0.93;;;21.70;52.60;;;;;;6274625;28;20077;-68
2021/10/22 09:14:57;;;;;;;1.77;0.80;;;21.70;52.50;;;;;;6296506;28;20013;-69
2021/10/22 09:18:05;;;;;;;4.07;1.17;;;21.70;52.50;;;;;;6296399;28;20107;-70
2021/10/22 09:21:05;;;;;;;1.83;0.77;;;21.70;52.60;;;;;;6297744;28;20023;-69
2021/10/22 09:24:18;;;;;;;1.60;0.90;;;21.70;52.50;;;;;;6274635;28;20489;-71
2021/10/22 09:27:32;;;;;;;1.48;0.90;;;21.70;52.50;;;;;;6272688;28;20025;-71
2021/10/22 09:30:42;;;;;;;1.92;0.77;;;21.60;52.50;;;;;;6271597;28;20070;-70
2021/10/22 09:33:52;;;;;;;3.35;1.17;;;21.60;52.40;;;;;;6271458;28;20055;-71
2021/10/22 09:36:53;;;;;;;3.30;1.10;;;21.70;52.50;;;;;;6283611;28;20389;-70
2021/10/22 09:40:00;;;;;;;2.88;0.88;;;21.70;52.50;;;;;;6296503;28;20028;-71
2021/10/22 09:43:34;;;;;;;2.85;1.05;;;21.60;52.40;;;;;;6295973;28;20021;-70
2021/10/22 09:46:35;;;;;;;3.72;1.00;;;21.60;52.40;;;;;;6280472;28;20124;-71
2021/10/22 09:49:40;;;;;;;2.22;0.93;;;21.60;52.40;;;;;;6272441;28;20030;-71
2021/10/22 09:52:40;;;;;;;2.45;0.73;;;21.70;52.40;;;;;;6272240;28;20526;-71
2021/10/22 09:55:41;;;;;;;1.98;0.82;;;21.70;52.50;;;;;;6272200;28;20064;-71
2021/10/22 09:59:03;;;;;;;2.60;1.10;;;21.60;52.50;;;;;;6248772;28;20060;-70
2021/10/22 10:02:08;;;;;;;1.77;0.93;;;21.60;52.40;;;;;;6253728;28;20017;-71
2021/10/22 10:05:11;;;;;;;1.63;0.90;;;21.60;52.50;;;;;;6270642;28;20017;-71
2021/10/22 10:08:14;;;;;;;1.65;1.00;;;21.70;52.50;;;;;;6289171;28;20036;-71
2021/10/22 10:11:15;;;;;;;3.38;1.08;;;21.60;52.40;;;;;;6296336;28;20048;-71
2021/10/22 10:14:17;;;;;;;2.00;0.70;;;21.60;52.50;;;;;;6296785;28;20104;-71
2021/10/22 10:17:18;;;;;;;2.60;1.13;;;21.60;52.40;;;;;;6287472;28;20532;-70
2021/10/22 10:20:23;;;;;;;2.42;1.10;;;21.60;52.30;;;;;;6271654;28;20382;-71
2021/10/22 10:23:24;;;;;;;1.83;0.80;;;21.70;52.50;;;;;;6288380;28;20036;-71
2021/10/22 10:26:32;;;;;;;2.20;0.80;;;21.60;52.30;;;;;;6288022;28;20025;-70
2021/10/22 10:29:40;;;;;;;3.28;1.20;;;21.60;52.40;;;;;;6270209;28;20048;-71
2021/10/22 10:32:42;;;;;;;1.75;0.80;;;21.60;52.50;;;;;;6271639;28;20094;-71
2021/10/22 10:35:43;;;;;;;3.38;1.40;;;21.60;52.50;;;;;;6271836;28;20029;-71
2021/10/22 10:38:45;;;;;;;2.15;0.77;;;21.60;52.30;;;;;;6270387;28;20055;-70
2021/10/22 10:41:45;;;;;;;1.98;0.80;;;21.60;52.30;;;;;;6269946;28;20017;-71
2021/10/22 10:44:47;;;;;;;2.78;0.98;;;21.60;52.20;;;;;;6271779;28;20025;-71
2021/10/22 10:47:51;;;;;;;2.15;1.02;;;21.60;52.30;;;;;;6270103;28;20485;-71
2021/10/22 10:51:03;;;;;;;2.03;1.00;;;21.60;52.40;;;;;;6271527;28;20128;-71
2021/10/22 10:54:04;;;;;;;3.17;0.98;;;21.60;52.30;;;;;;6271316;28;20504;-71
2021/10/22 10:57:22;;;;;;;1.77;0.82;;;21.60;52.40;;;;;;6271282;28;20029;-71
2021/10/22 11:00:29;;;;;;;2.05;0.90;;;21.60;52.40;;;;;;6271145;28;20060;-71
2021/10/22 11:03:45;;;;;;;1.85;0.70;;;21.60;52.40;;;;;;6270075;28;20021;-70
2021/10/22 11:06:50;;;;;;;;;;;21.60;52.40;;;;;;6271444;28;20057;-70
2021/10/22 11:09:52;;;;;;;1.77;0.90;;;21.60;52.30;;;;;;6271558;28;19959;-70
2021/10/22 11:13:15;;;;;;;2.30;0.77;;;21.60;52.20;;;;;;6274276;28;20028;-70
2021/10/22 11:16:25;;;;;;;1.70;0.88;;;21.60;52.40;;;;;;6275376;28;20029;-70
2021/10/22 11:19:32;;;;;;;2.25;1.00;;;21.60;52.30;;;;;;6276243;28;20496;-70
2021/10/22 11:22:33;;;;;;;2.17;0.95;;;21.60;52.40;;;;;;6270901;28;20029;-70
2021/10/22 11:25:34;;;;;;;1.65;0.80;;;21.60;52.40;;;;;;6257813;28;20394;-70
2021/10/22 11:28:35;;;;;;;2.67;1.23;;;21.60;52.40;;;;;;6274293;28;20029;-70
2021/10/22 11:31:46;;;;;;;2.28;0.93;;;21.60;52.30;;;;;;6284830;28;20059;-70
2021/10/22 11:35:00;;;;;;;1.20;0.70;;;21.60;52.40;;;;;;6300155;28;20059;-70
2021/10/22 11:38:06;;;;;;;1.55;0.60;;;21.60;52.20;;;;;;6278271;28;20029;-70
2021/10/22 11:41:14;;;;;;;1.98;0.90;;;21.60;52.30;;;;;;6274461;28;20101;-70
2021/10/22 11:44:17;;;;;;;1.90;0.80;;;21.60;52.40;;;;;;6274011;28;20028;-70
2021/10/22 11:47:20;;;;;;;2.03;0.98;;;21.60;52.40;;;;;;6273885;28;20116;-70
2021/10/22 11:50:23;;;;;;;2.45;0.68;;;21.60;52.20;;;;;;6275165;28;20028;-70
2021/10/22 11:53:25;;;;;;;1.88;0.70;;;21.60;52.30;;;;;;6273311;28;20479;-70
2021/10/22 11:56:26;;;;;;;1.38;0.80;;;21.60;52.50;;;;;;6273268;28;20052;-70
2021/10/22 11:59:27;;;;;;;1.90;0.80;;;21.60;52.50;;;;;;6275068;28;20487;-70
2021/10/22 12:02:29;;;;;;;1.20;0.77;;;21.60;52.40;;;;;;6273680;28;20021;-71
2021/10/22 12:05:30;;;;;;;1.60;0.73;;;21.60;52.30;;;;;;6274968;28;20017;-70
2021/10/22 12:08:34;;;;;;;1.52;0.73;;;21.60;52.30;;;;;;6275256;28;20031;-71
2021/10/22 12:11:34;;;;;;;2.03;0.82;;;21.60;52.40;;;;;;6274523;28;20094;-70
2021/10/22 12:14:45;;;;;;;1.17;0.60;;;21.60;52.40;;;;;;6274868;28;20037;-71
2021/10/22 12:17:52;;;;;;;4.38;0.98;;;21.60;52.30;;;;;;6274489;28;20029;-71
2021/10/22 12:20:53;;;;;;;1.67;0.90;;;21.60;52.30;;;;;;6274472;28;20020;-71
2021/10/22 12:23:58;;;;;;;3.03;1.15;;;21.60;52.20;;;;;;6272228;28;20057;-71
2021/10/22 12:27:05;;;;;;;;;;;21.60;52.10;;;;;;6273611;28;20075;-71
2021/10/22 12:30:08;;;;;;;1.92;0.88;;;21.60;52.20;;;;;;6274463;28;19904;-71
2021/10/22 12:33:11;;;;;;;1.65;0.70;;;21.60;52.20;;;;;;6274104;28;20551;-71
2021/10/22 12:36:16;;;;;;;2.35;0.80;;;21.60;52.40;;;;;;6274212;28;20021;-71
2021/10/22 12:39:21;;;;;;;2.17;0.90;;;21.60;52.30;;;;;;6274204;28;20102;-71
2021/10/22 12:42:24;;;;;;;2.25;1.02;;;21.60;52.20;;;;;;6272845;28;20033;-71
2021/10/22 12:45:25;;;;;;;1.85;0.85;;;21.60;52.10;;;;;;6273885;28;20566;-71
2021/10/22 12:48:33;;;;;;;1.63;0.68;;;21.60;52.10;;;;;;6274018;28;20029;-71
2021/10/22 12:51:33;;;;;;;3.00;1.05;;;21.60;52.10;;;;;;6272652;28;20109;-71
2021/10/22 12:54:45;;;;;;;1.67;0.70;;;21.60;52.20;;;;;;6273940;28;20359;-71
2021/10/22 12:57:47;;;;;;;1.25;0.80;;;21.60;52.00;;;;;;6272683;28;20025;-71
2021/10/22 13:01:07;;;;;;;1.50;0.73;;;21.60;52.10;;;;;;6273734;28;20023;-71
2021/10/22 13:04:19;;;;;;;2.45;1.00;;;21.60;52.10;;;;;;6272630;28;20580;-71
2021/10/22 13:07:33;;;;;;;3.95;1.08;;;21.60;52.70;;;;;;6273374;28;20086;-70
2021/10/22 13:23:22;;;;;;;1.70;0.85;;;21.60;52.20;;;;;;6273661;28;20083;-71
2021/10/22 13:26:23;;;;;;;1.83;0.80;;;21.60;52.10;;;;;;6280762;28;20052;-70
2021/10/22 13:29:24;;;;;;;2.33;0.80;;;21.60;52.10;;;;;;6296329;28;20025;-70
2021/10/22 13:32:26;;;;;;;2.38;0.63;;;21.60;52.10;;;;;;6294873;28;20031;-69
2021/10/22 13:35:26;;;;;;;1.77;1.10;;;21.60;52.00;;;;;;6296121;28;20020;-69
2021/10/22 13:38:28;;;;;;;3.15;0.90;;;21.60;52.10;;;;;;6271925;28;20429;-70
2021/10/22 13:41:29;;;;;;;1.55;0.77;;;21.60;52.10;;;;;;6272919;28;20028;-71
2021/10/22 13:44:30;;;;;;;2.15;0.90;;;21.60;52.80;;;;;;6272969;28;20453;-70
2021/10/22 13:47:32;;;;;;;1.83;0.80;;;21.60;52.10;;;;;;6271903;28;20131;-70
2021/10/22 13:50:32;;;;;;;1.13;0.70;;;21.60;52.20;;;;;;6269979;28;20539;-70
2021/10/22 13:53:33;;;;;;;4.35;0.88;;;21.60;52.20;;;;;;6271745;28;20029;-70
2021/10/22 13:56:34;;;;;;;1.77;0.80;;;21.60;52.20;;;;;;6273566;28;20445;-70
2021/10/22 13:59:37;;;;;;;1.92;0.82;;;21.60;52.10;;;;;;6295257;28;20090;-70
2021/10/22 14:02:37;;;;;;;1.65;0.75;;;21.60;52.20;;;;;;6295184;28;20603;-69
2021/10/22 14:05:38;;;;;;;1.67;0.70;;;21.60;52.10;;;;;;6295108;28;20020;-70
2021/10/22 14:08:39;;;;;;;1.73;0.70;;;21.60;52.20;;;;;;6294833;28;20056;-70
2021/10/22 14:11:48;;;;;;;1.40;0.73;;;21.60;52.30;;;;;;6295928;28;20063;-70
2021/10/22 14:15:01;;;;;;;2.22;1.00;;;21.60;52.30;;;;;;6283728;28;20023;-70
2021/10/22 14:31:09;;;;;;;1.10;0.60;;;21.60;52.30;;;;;;6277548;28;20120;-70
2021/10/22 14:34:10;;;;;;;2.38;0.80;;;21.60;52.40;;;;;;6296512;28;20032;-71
2021/10/22 14:37:10;;;;;;;1.73;0.73;;;21.60;52.40;;;;;;6294862;28;20443;-68
2021/10/22 14:40:12;;;;;;;1.55;0.80;;;21.60;52.40;;;;;;6276700;28;20478;-68
2021/10/22 14:43:17;;;;;;;2.45;0.90;;;21.60;52.60;;;;;;6267596;28;20497;-66
2021/10/22 14:49:25;;;;;;;4.05;1.20;;;21.50;52.60;;;;;;6272900;28;20021;-68
2021/10/22 14:52:39;;;;;;;5.00;1.17;;;21.50;52.40;;;;;;6272493;28;20048;-71
2021/10/22 14:55:43;;;;;;;2.35;0.80;;;21.50;52.10;;;;;;6280514;28;20278;-69
2021/10/22 14:58:44;;;;;;;10.65;1.23;;;21.50;52.00;;;;;;6273125;28;20028;-68
2021/10/22 15:01:47;;;;;;;3.67;1.00;;;21.50;51.90;;;;;;6276031;28;20029;-68
2021/10/22 15:04:48;;;;;;;5.38;1.15;;;21.50;51.60;;;;;;6270669;28;20021;-68
2021/10/22 15:07:49;;;;;;;4.93;1.02;;;21.50;51.60;;;;;;6260537;28;20075;-68
2021/10/22 15:10:51;;;;;;;3.90;1.52;;;21.50;51.10;;;;;;6274804;28;20418;-68
2021/10/22 15:13:52;;;;;;;4.80;1.45;;;21.50;51.30;;;;;;6287632;28;20040;-68
2021/10/22 15:16:52;;;;;;;5.32;1.83;;;21.50;50.90;;;;;;6273805;28;20025;-69
2021/10/22 15:19:53;;;;;;;6.70;1.55;;;21.50;50.80;;;;;;6272380;28;20512;-69
2021/10/22 15:22:54;;;;;;;4.75;1.80;;;21.50;50.60;;;;;;6271543;28;20033;-69
2021/10/22 15:25:55;;;;;;;8.23;1.35;;;21.50;51.00;;;;;;6277642;28;20127;-69
2021/10/22 15:28:56;;;;;;;5.63;1.23;;;21.50;51.00;;;;;;6277691;28;20401;-68
2021/10/22 15:31:56;;;;;;;7.72;1.42;;;21.50;51.20;;;;;;6294696;28;20025;-69
2021/10/22 15:34:57;;;;;;;3.03;1.40;;;21.50;51.10;;;;;;6277217;28;20037;-69
2021/10/22 15:38:00;;;;;;;4.72;1.77;;;21.50;51.30;;;;;;6272615;28;20060;-72
2021/10/22 15:41:02;;;;;;;4.00;1.50;;;21.50;51.00;;;;;;6272633;28;20397;-73
2021/10/22 15:44:04;;;;;;;3.38;1.25;;;21.50;51.40;;;;;;6274758;28;20036;-74
2021/10/22 15:47:05;;;;;;;5.35;1.20;;;21.50;51.50;;;;;;6279613;28;20029;-68
2021/10/22 15:50:07;;;;;;;6.18;1.45;;;21.50;51.50;;;;;;6291422;28;20127;-69
2021/10/22 15:53:08;;;;;;;3.63;1.17;;;21.50;51.20;;;;;;6272971;28;20664;-69
2021/10/22 15:56:09;;;;;;;3.35;1.30;;;21.50;51.30;;;;;;6282651;28;20024;-69
2021/10/22 15:59:10;;;;;;;6.07;1.23;;;21.50;50.20;;;;;;6279767;28;20584;-68
2021/10/22 16:02:11;;;;;;;3.70;1.10;;;21.50;50.00;;;;;;6291390;28;20530;-69
2021/10/22 16:05:12;;;;;;;5.25;1.52;;;21.50;50.20;;;;;;6293368;28;20017;-69
2021/10/22 16:17:20;;;;;;;3.10;1.42;;;21.50;50.80;;;;;;6282353;28;20071;-68
2021/10/22 16:20:21;;;;;;;5.40;1.00;;;21.50;50.90;;;;;;6293667;28;20036;-68
2021/10/22 16:23:22;;;;;;;3.70;1.00;;;21.50;50.90;;;;;;6268724;28;20150;-68
2021/10/22 16:26:22;;;;;;;2.05;1.00;;;21.50;51.20;;;;;;6262215;28;20144;-68
2021/10/22 16:29:23;;;;;;;2.17;1.00;;;21.50;51.20;;;;;;6262254;28;20040;-68
2021/10/22 16:32:27;;;;;;;3.45;1.20;;;21.50;51.00;;;;;;6285844;28;20493;-68
2021/10/22 16:35:42;;;;;;;4.13;1.35;;;21.60;52.20;;;;;;6296767;28;20028;-68